首页
METAR-TAF:

METAR-TAF

机场 :

Sanford-Lee County Regional Airport

Sanford, 北卡罗来纳州, 美国

纬度: 35-34-57N, 经度: 079-06-05W, 海拔: 75米

当前天气观测

该预报发布于14分钟前的00:15 UTC
风速5节,风向东北
温度 21°C
湿度 88%
气压 1020 hPa
能見度: 11.3公里
阴天层高于1100英尺
小雨

METAR: KTTA 240015Z AUTO 04005KT 7SM -RA OVC011 21/19 A3012 RMK AO2 T02050192

时间: 20:29 (00:29 UTC)


TAF: 丢失

超过4000个机场的气象观测和天气预报(METAR&TAF报告)。

可查询的气象台以黄色和红色小点在地图上表示。

将鼠标移到小点上方,可查看气象台名称。

然后点击查看天气观测和预报。

如需切换地图:点击带黑十字的绿色按钮放大地图;点击带横线的绿色按钮缩小地图;或者点击绿色箭头查看邻近地区的地图。


METAR-TAF: